Time;durP1;ratioP1;P1;durP2;ratioP2;P2;SDS_P1;SDS_P2;PMS_P1;PMS_P2;Temp;Humidity;BMP_temperature;BMP_pressure;BME280_temperature;BME280_humidity;BME280_pressure;Samples;Min_cycle;Max_cycle;Signal;HPM_P1;HPM_P2
2023/09/07 00:00:31;;;;;;;1999.90;999.90;;;18.20;99.90;;;;;;5059573;28;20518;-76
2023/09/07 00:02:59;;;;;;;1999.90;999.90;;;18.10;99.90;;;;;;5056006;28;20440;-77
2023/09/07 00:05:26;;;;;;;1999.90;999.90;;;17.90;99.90;;;;;;5053082;28;20428;-72
2023/09/07 00:07:53;;;;;;;1999.90;999.90;;;18.00;99.90;;;;;;5064326;28;20857;-76
2023/09/07 00:10:20;;;;;;;1999.90;999.90;;;18.10;99.90;;;;;;5063962;28;20428;-76
2023/09/07 00:12:46;;;;;;;1999.90;999.90;;;18.20;99.90;;;;;;5057918;28;20429;-73
2023/09/07 00:15:13;;;;;;;1999.90;999.90;;;18.20;99.90;;;;;;5054589;28;20440;-76
2023/09/07 00:17:40;;;;;;;1999.90;999.90;;;18.30;99.90;;;;;;5052353;28;20438;-74
2023/09/07 00:20:11;;;;;;;1999.90;999.90;;;18.40;99.90;;;;;;5066064;28;20912;-76
2023/09/07 00:22:38;;;;;;;1999.90;999.90;;;18.30;99.90;;;;;;5060167;28;20428;-75
2023/09/07 00:25:06;;;;;;;1999.90;999.90;;;18.10;99.90;;;;;;5061051;28;20427;-73
2023/09/07 00:27:33;;;;;;;1999.90;999.90;;;17.80;99.90;;;;;;5051267;28;20439;-76
2023/09/07 00:30:00;;;;;;;1999.90;999.90;;;17.70;99.90;;;;;;5060903;28;20448;-75
2023/09/07 00:32:27;;;;;;;1999.90;999.90;;;17.50;99.90;;;;;;5063452;28;20440;-77
2023/09/07 00:34:54;;;;;;;1999.90;999.90;;;17.40;99.90;;;;;;5060927;28;20950;-79
2023/09/07 00:37:22;;;;;;;1999.90;999.90;;;17.40;99.90;;;;;;5059964;28;20439;-75
2023/09/07 00:39:49;;;;;;;1999.90;999.90;;;17.50;99.90;;;;;;5057539;28;20804;-76
2023/09/07 00:42:15;;;;;;;1999.90;999.90;;;17.60;99.90;;;;;;5069569;28;20435;-76
2023/09/07 00:44:42;;;;;;;1999.90;999.90;;;17.60;99.90;;;;;;5065212;28;20450;-75
2023/09/07 00:47:09;;;;;;;1999.90;999.90;;;17.50;99.90;;;;;;5067759;28;20450;-76
2023/09/07 00:49:36;;;;;;;1999.90;999.90;;;17.50;99.90;;;;;;5057891;28;20454;-76
2023/09/07 00:52:04;;;;;;;1999.90;999.90;;;17.40;99.90;;;;;;5059073;28;20431;-75
2023/09/07 00:54:32;;;;;;;1999.90;999.90;;;17.40;99.90;;;;;;5068138;28;20428;-75
2023/09/07 00:56:59;;;;;;;1999.90;999.90;;;17.40;99.90;;;;;;5064001;28;20425;-75
2023/09/07 00:59:26;;;;;;;1999.90;999.90;;;17.40;99.90;;;;;;5061625;28;20509;-76
2023/09/07 01:01:52;;;;;;;1999.90;999.90;;;17.50;99.90;;;;;;5054710;28;20440;-75
2023/09/07 01:04:19;;;;;;;1999.90;999.90;;;17.40;99.90;;;;;;5067825;28;20941;-76
2023/09/07 01:06:53;;;;;;;1999.90;999.90;;;17.40;99.90;;;;;;5066709;28;20437;-76
2023/09/07 01:09:24;;;;;;;1999.90;999.90;;;17.40;99.90;;;;;;5061980;28;20427;-75
2023/09/07 01:11:52;;;;;;;1999.90;999.90;;;17.50;99.90;;;;;;5055043;28;20432;-77
2023/09/07 01:14:19;;;;;;;1999.90;999.90;;;17.50;99.90;;;;;;5058242;28;20939;-79
2023/09/07 01:16:46;;;;;;;1999.90;999.90;;;17.50;99.90;;;;;;5065895;28;20942;-76
2023/09/07 01:19:13;;;;;;;1999.90;999.90;;;17.40;99.90;;;;;;5065703;28;20427;-75
2023/09/07 01:21:41;;;;;;;1999.90;999.90;;;17.30;99.90;;;;;;5058229;28;20432;-76
2023/09/07 01:24:10;;;;;;;1999.90;999.90;;;17.30;99.90;;;;;;5054620;28;20805;-74
2023/09/07 01:26:38;;;;;;;1999.90;999.90;;;17.30;99.90;;;;;;5060559;28;20427;-73
2023/09/07 01:29:06;;;;;;;1999.90;999.90;;;17.30;99.90;;;;;;5067439;28;20459;-75
2023/09/07 01:31:35;;;;;;;1999.90;999.90;;;17.30;99.90;;;;;;5065026;28;20485;-72
2023/09/07 01:34:02;;;;;;;1999.90;999.90;;;17.30;99.90;;;;;;5056975;28;20433;-76
2023/09/07 01:36:29;;;;;;;1999.90;999.90;;;17.40;99.90;;;;;;5054268;28;20455;-75
2023/09/07 01:38:57;;;;;;;1999.90;999.90;;;17.60;99.90;;;;;;5061511;28;20473;-75
2023/09/07 01:41:24;;;;;;;1999.90;999.90;;;17.50;99.90;;;;;;5065344;28;20431;-75
2023/09/07 01:43:51;;;;;;;1999.90;999.90;;;17.50;99.90;;;;;;5061565;28;20516;-75
2023/09/07 01:46:18;;;;;;;1999.90;999.90;;;17.40;99.90;;;;;;5057055;28;20441;-74
2023/09/07 01:48:44;;;;;;;1999.90;999.90;;;17.40;99.90;;;;;;5055693;28;20435;-75
2023/09/07 01:51:11;;;;;;;1999.90;999.90;;;17.40;99.90;;;;;;5070138;28;20437;-77
2023/09/07 01:53:38;;;;;;;1999.90;999.90;;;17.40;99.90;;;;;;5065056;28;20427;-75
2023/09/07 01:56:06;;;;;;;1999.90;999.90;;;17.50;99.90;;;;;;5061475;28;20426;-77
2023/09/07 01:58:34;;;;;;;1999.90;999.90;;;17.60;99.90;;;;;;5058367;28;20432;-75
2023/09/07 02:01:01;;;;;;;1999.90;999.90;;;17.40;99.90;;;;;;5052584;28;20436;-75
2023/09/07 02:03:28;;;;;;;1999.90;999.90;;;17.60;99.90;;;;;;5065267;28;20459;-76
2023/09/07 02:05:54;;;;;;;1999.90;999.90;;;17.40;99.90;;;;;;5063924;28;20919;-75
2023/09/07 02:08:20;;;;;;;1999.90;999.90;;;17.30;99.90;;;;;;5061909;28;20455;-75
2023/09/07 02:10:47;;;;;;;1999.90;999.90;;;17.20;99.90;;;;;;5056066;28;20423;-75
2023/09/07 02:13:15;;;;;;;1999.90;999.90;;;17.30;99.90;;;;;;5060275;28;20435;-75
2023/09/07 02:15:42;;;;;;;1999.90;999.90;;;17.40;99.90;;;;;;5065300;28;20438;-77
2023/09/07 02:18:08;;;;;;;1999.90;999.90;;;17.10;99.90;;;;;;5064237;28;20444;-76
2023/09/07 02:20:35;;;;;;;1999.90;999.90;;;17.60;99.90;;;;;;5061230;28;20440;-75
2023/09/07 02:23:02;;;;;;;1999.90;999.90;;;17.60;99.90;;;;;;5055111;28;20433;-74
2023/09/07 02:25:30;;;;;;;1999.90;999.90;;;17.60;99.90;;;;;;5060242;28;20432;-76
2023/09/07 02:27:57;;;;;;;1999.90;999.90;;;17.60;99.90;;;;;;5067574;28;20832;-75
2023/09/07 02:30:25;;;;;;;1999.90;999.90;;;17.60;99.90;;;;;;5064668;28;20463;-75
2023/09/07 02:32:53;;;;;;;1999.90;999.90;;;17.60;99.90;;;;;;5063653;28;20447;-75
2023/09/07 02:35:19;;;;;;;1999.90;999.90;;;17.70;99.90;;;;;;5061439;28;20880;-77
2023/09/07 02:37:46;;;;;;;1999.90;999.90;;;17.70;99.90;;;;;;5051898;28;20439;-75
2023/09/07 02:40:15;;;;;;;1999.90;999.90;;;17.60;99.90;;;;;;5062495;28;20436;-78
2023/09/07 02:42:42;;;;;;;1999.90;999.90;;;17.60;99.90;;;;;;5066391;28;20923;-75
2023/09/07 02:45:12;;;;;;;1999.90;999.90;;;17.50;99.90;;;;;;5064710;28;20435;-75
2023/09/07 02:47:41;;;;;;;1999.90;999.90;;;17.50;99.90;;;;;;5063486;28;20434;-74
2023/09/07 02:50:08;;;;;;;1999.90;999.90;;;17.60;99.90;;;;;;5053903;28;20429;-75
2023/09/07 02:52:35;;;;;;;1999.90;999.90;;;17.60;99.90;;;;;;5065927;28;20439;-75
2023/09/07 02:55:02;;;;;;;1999.90;999.90;;;17.60;99.90;;;;;;5066261;28;20426;-75
2023/09/07 02:57:29;;;;;;;1999.90;999.90;;;17.60;99.90;;;;;;5065534;28;20423;-75
2023/09/07 02:59:56;;;;;;;1999.90;999.90;;;17.70;99.90;;;;;;5057681;28;20435;-75
2023/09/07 03:02:22;;;;;;;1999.90;999.90;;;17.60;99.90;;;;;;5054573;28;20429;-74
2023/09/07 03:04:54;;;;;;;1999.90;999.90;;;17.70;99.90;;;;;;5059117;28;20438;-75
2023/09/07 03:07:21;;;;;;;1999.90;999.90;;;17.60;99.90;;;;;;5068194;28;20514;-75
2023/09/07 03:09:47;;;;;;;1999.90;999.90;;;17.50;99.90;;;;;;5063511;28;20522;-75
2023/09/07 03:12:14;;;;;;;1999.90;999.90;;;17.50;99.90;;;;;;5059736;28;20944;-76
2023/09/07 03:14:44;;;;;;;1999.90;999.90;;;17.50;99.90;;;;;;5062722;28;20431;-75
2023/09/07 03:17:12;;;;;;;1999.90;999.90;;;17.40;99.90;;;;;;5056340;28;20512;-75
2023/09/07 03:19:39;;;;;;;1999.90;999.90;;;17.30;99.90;;;;;;5065809;28;21038;-75
2023/09/07 03:22:08;;;;;;;1999.90;999.90;;;17.10;99.90;;;;;;5066061;28;20436;-75
2023/09/07 03:24:35;;;;;;;1999.90;999.90;;;17.00;99.90;;;;;;5065706;28;20434;-75
2023/09/07 03:27:01;;;;;;;1999.90;999.90;;;17.30;99.90;;;;;;5064322;28;20450;-74
2023/09/07 03:29:33;;;;;;;1999.90;999.90;;;17.00;99.90;;;;;;5060192;28;20428;-74
2023/09/07 03:32:00;;;;;;;1999.90;999.90;;;17.00;99.90;;;;;;5052499;28;20454;-75
2023/09/07 03:34:26;;;;;;;1999.90;999.90;;;17.00;99.90;;;;;;5067494;28;20462;-74
2023/09/07 03:36:53;;;;;;;1999.90;999.90;;;17.00;99.90;;;;;;5063898;28;20438;-75
2023/09/07 03:39:22;;;;;;;1999.90;999.90;;;17.10;99.90;;;;;;5059674;28;20791;-75
2023/09/07 03:41:49;;;;;;;1999.90;999.90;;;17.00;99.90;;;;;;5055512;28;20434;-75
2023/09/07 03:44:15;;;;;;;1999.90;999.90;;;17.00;99.90;;;;;;5056111;28;20427;-75
2023/09/07 03:46:42;;;;;;;1999.90;999.90;;;16.90;99.90;;;;;;5067809;28;20438;-75
2023/09/07 03:49:09;;;;;;;1999.90;999.90;;;16.80;99.90;;;;;;5063267;28;20424;-75
2023/09/07 03:51:36;;;;;;;1999.90;999.90;;;16.70;99.90;;;;;;5061758;28;20432;-75
2023/09/07 03:54:02;;;;;;;1999.90;999.90;;;16.70;99.90;;;;;;5057509;28;20437;-75
2023/09/07 03:56:31;;;;;;;1999.90;999.90;;;16.70;99.90;;;;;;5058889;28;20427;-75
2023/09/07 03:58:57;;;;;;;1999.90;999.90;;;16.70;99.90;;;;;;5060264;28;20789;-75
2023/09/07 04:01:25;;;;;;;1999.90;999.90;;;16.70;99.90;;;;;;5066863;28;20435;-77
2023/09/07 04:03:51;;;;;;;1999.90;999.90;;;16.60;99.90;;;;;;5061584;28;20427;-75
2023/09/07 04:06:19;;;;;;;1999.90;999.90;;;16.50;99.90;;;;;;5060503;28;20844;-75
2023/09/07 04:08:46;;;;;;;1999.90;999.90;;;16.50;99.90;;;;;;5058141;28;20427;-75
2023/09/07 04:11:12;;;;;;;1999.90;999.90;;;16.60;99.90;;;;;;5058410;28;20427;-75
2023/09/07 04:13:40;;;;;;;1999.90;999.90;;;16.60;99.90;;;;;;5071899;28;20431;-75
2023/09/07 04:16:10;;;;;;;1999.90;999.90;;;16.90;99.90;;;;;;5065547;28;20429;-75
2023/09/07 04:18:36;;;;;;;1999.90;999.90;;;16.60;99.90;;;;;;5067280;28;20438;-75
2023/09/07 04:21:07;;;;;;;1999.90;999.90;;;16.70;99.90;;;;;;5058206;28;20444;-77
2023/09/07 04:23:34;;;;;;;1999.90;999.90;;;16.70;99.90;;;;;;5060203;28;20922;-76
2023/09/07 04:26:06;;;;;;;1999.90;999.90;;;16.70;99.90;;;;;;5063572;28;20476;-75
2023/09/07 04:28:33;;;;;;;1999.90;999.90;;;16.70;99.90;;;;;;5064992;28;20426;-75
2023/09/07 04:31:01;;;;;;;1999.90;999.90;;;16.50;99.90;;;;;;5064364;28;20439;-76
2023/09/07 04:33:30;;;;;;;1999.90;999.90;;;16.50;99.90;;;;;;5062162;28;20429;-76
2023/09/07 04:35:57;;;;;;;1999.90;999.90;;;16.30;99.90;;;;;;5064347;28;20438;-73
2023/09/07 04:38:24;;;;;;;1999.90;999.90;;;16.20;99.90;;;;;;5059792;28;20450;-77
2023/09/07 04:40:51;;;;;;;1999.90;999.90;;;16.20;99.90;;;;;;5068736;28;20431;-75
2023/09/07 04:43:17;;;;;;;1999.90;999.90;;;16.10;99.90;;;;;;5066454;28;20432;-74
2023/09/07 04:45:47;;;;;;;1999.90;999.90;;;15.90;99.90;;;;;;5064157;28;20443;-74
2023/09/07 04:48:15;;;;;;;1999.90;999.90;;;15.90;99.90;;;;;;5057845;28;20491;-75
2023/09/07 04:50:42;;;;;;;1999.90;999.90;;;15.90;99.90;;;;;;5055112;28;20433;-73
2023/09/07 04:53:09;;;;;;;1999.90;999.90;;;15.80;99.90;;;;;;5063142;28;20435;-75
2023/09/07 04:55:38;;;;;;;1999.90;999.90;;;15.80;99.90;;;;;;5068351;28;20439;-75
2023/09/07 04:58:05;;;;;;;1999.90;999.90;;;15.90;99.90;;;;;;5063221;28;20437;-76
2023/09/07 05:00:32;;;;;;;1999.90;999.90;;;15.90;99.90;;;;;;5064505;28;20479;-76
2023/09/07 05:02:58;;;;;;;1999.90;999.90;;;15.80;99.90;;;;;;5057470;28;20782;-75
2023/09/07 05:05:26;;;;;;;1999.90;999.90;;;16.20;99.90;;;;;;5058816;28;20438;-75
2023/09/07 05:07:53;;;;;;;1999.90;999.90;;;16.10;99.90;;;;;;5068763;28;20472;-73
2023/09/07 05:10:20;;;;;;;1999.90;999.90;;;16.20;99.90;;;;;;5065281;28;20440;-74
2023/09/07 05:12:47;;;;;;;1999.90;999.90;;;16.20;99.90;;;;;;5063635;28;20951;-73
2023/09/07 05:15:14;;;;;;;1999.90;999.90;;;16.70;99.90;;;;;;5062937;28;20458;-78
2023/09/07 05:17:41;;;;;;;1999.90;999.90;;;16.30;99.90;;;;;;5066727;28;20434;-75
2023/09/07 05:20:09;;;;;;;1999.90;999.90;;;16.30;99.90;;;;;;5061827;28;20431;-75
2023/09/07 05:22:39;;;;;;;1999.90;999.90;;;16.30;99.90;;;;;;5068308;28;20442;-75
2023/09/07 05:25:06;;;;;;;1999.90;999.90;;;16.30;99.90;;;;;;5066257;28;20796;-72
2023/09/07 05:27:36;;;;;;;1999.90;999.90;;;16.40;99.90;;;;;;5060463;28;20433;-75
2023/09/07 05:30:02;;;;;;;1999.90;999.90;;;16.40;99.90;;;;;;5056666;28;20450;-76
2023/09/07 05:32:29;;;;;;;1999.90;999.90;;;16.40;99.90;;;;;;5057973;28;20443;-76
2023/09/07 05:34:56;;;;;;;1999.90;999.90;;;16.50;99.90;;;;;;5069132;28;20435;-76
2023/09/07 05:37:23;;;;;;;1999.90;999.90;;;16.60;99.90;;;;;;5067174;28;20462;-74
2023/09/07 05:39:51;;;;;;;1999.90;999.90;;;17.00;99.90;;;;;;5062799;28;20428;-74
2023/09/07 05:42:18;;;;;;;1999.90;999.90;;;16.80;99.90;;;;;;5061832;28;20433;-75
2023/09/07 05:44:45;;;;;;;1999.90;999.90;;;16.80;99.90;;;;;;5067796;28;20431;-76
2023/09/07 05:47:11;;;;;;;1999.90;999.90;;;16.90;99.90;;;;;;5052208;28;20418;-75
2023/09/07 05:49:38;;;;;;;1999.90;999.90;;;16.90;99.90;;;;;;5052176;28;20429;-76
2023/09/07 05:52:05;;;;;;;1999.90;999.90;;;17.50;99.90;;;;;;5052165;28;20409;-75
2023/09/07 05:54:32;;;;;;;1999.90;999.90;;;17.20;99.90;;;;;;5056027;28;20437;-77
2023/09/07 05:57:00;;;;;;;1999.90;999.90;;;17.40;99.90;;;;;;5093033;22;20449;-74
2023/09/07 05:59:27;;;;;;;1999.90;999.90;;;17.40;99.90;;;;;;5074263;28;20409;-74
2023/09/07 06:01:54;;;;;;;1999.90;999.90;;;17.60;99.90;;;;;;5065732;28;20470;-73
2023/09/07 06:04:20;;;;;;;1999.90;999.90;;;17.70;99.90;;;;;;5072644;28;20432;-73
2023/09/07 06:06:48;;;;;;;1999.90;999.90;;;17.80;99.90;;;;;;5075393;28;20439;-74
2023/09/07 06:09:15;;;;;;;1999.90;999.90;;;17.80;99.90;;;;;;5074512;28;20431;-72
2023/09/07 06:11:42;;;;;;;1999.90;999.90;;;17.90;99.90;;;;;;5076148;28;20469;-74
2023/09/07 06:14:10;;;;;;;1999.90;999.90;;;18.00;99.90;;;;;;5075599;28;20567;-74
2023/09/07 06:16:36;;;;;;;1999.90;999.90;;;18.10;99.90;;;;;;5079469;28;20423;-73
2023/09/07 06:19:03;;;;;;;1999.90;999.90;;;18.20;99.90;;;;;;5079262;28;20416;-69
2023/09/07 06:21:30;;;;;;;1999.90;999.90;;;18.40;99.90;;;;;;5074925;28;20436;-71
2023/09/07 06:23:57;;;;;;;1999.90;999.90;;;18.40;99.90;;;;;;5072641;28;20426;-72
2023/09/07 06:26:23;;;;;;;1999.90;999.90;;;18.60;99.90;;;;;;5074317;28;20456;-72
2023/09/07 06:28:50;;;;;;;1999.90;999.90;;;18.70;99.90;;;;;;5076001;28;20440;-72
2023/09/07 06:31:18;;;;;;;1999.90;999.90;;;18.80;99.90;;;;;;5074566;28;20827;-71
2023/09/07 06:33:45;;;;;;;1999.90;999.90;;;19.00;99.90;;;;;;5081996;28;20415;-71
2023/09/07 06:36:11;;;;;;;1999.90;999.90;;;19.00;99.90;;;;;;5078254;28;20438;-72
2023/09/07 06:38:38;;;;;;;1999.90;999.90;;;19.00;99.90;;;;;;5076224;28;21147;-73
2023/09/07 06:41:07;;;;;;;1999.90;999.90;;;19.10;99.90;;;;;;5072955;28;20423;-73
2023/09/07 06:43:34;;;;;;;1999.90;999.90;;;19.30;99.90;;;;;;5075634;28;20817;-72
2023/09/07 06:46:07;;;;;;;1999.90;999.90;;;19.40;99.90;;;;;;5076827;28;20944;-71
2023/09/07 06:48:35;;;;;;;1999.90;999.90;;;19.50;99.90;;;;;;5073401;28;20439;-72
2023/09/07 06:51:06;;;;;;;1999.90;999.90;;;19.80;99.90;;;;;;5076406;28;20442;-72
2023/09/07 06:53:32;;;;;;;1999.90;999.90;;;19.70;99.90;;;;;;5080216;28;20501;-74
2023/09/07 06:55:59;;;;;;;1999.90;999.90;;;19.80;99.90;;;;;;5082880;28;20422;-71
2023/09/07 06:58:26;;;;;;;1999.90;999.90;;;20.00;99.90;;;;;;5082384;28;20407;-75
2023/09/07 07:00:53;;;;;;;1999.90;999.90;;;20.10;99.90;;;;;;5080431;28;20416;-73
2023/09/07 07:03:20;;;;;;;1999.90;999.90;;;20.20;99.90;;;;;;5079571;28;20415;-72
2023/09/07 07:05:48;;;;;;;1999.90;999.90;;;20.30;99.90;;;;;;5074648;28;20435;-74
2023/09/07 07:08:15;;;;;;;1999.90;999.90;;;20.40;99.90;;;;;;5075758;28;20411;-74
2023/09/07 07:10:42;;;;;;;1999.90;999.90;;;20.60;99.90;;;;;;5073063;28;20427;-72
2023/09/07 07:13:09;;;;;;;1999.90;999.90;;;20.80;99.90;;;;;;5075499;28;20419;-75
2023/09/07 07:15:36;;;;;;;1999.90;999.90;;;21.20;99.90;;;;;;5077113;28;20422;-74
2023/09/07 07:18:08;;;;;;;1999.90;999.90;;;21.10;99.90;;;;;;5075353;28;20424;-73
2023/09/07 07:20:34;;;;;;;1999.90;999.90;;;21.20;99.90;;;;;;5076853;28;20408;-73
2023/09/07 07:23:03;;;;;;;1999.90;999.90;;;21.30;99.90;;;;;;5076690;28;20412;-73
2023/09/07 07:25:31;;;;;;;1999.90;999.90;;;21.30;99.90;;;;;;5075379;28;20430;-73
2023/09/07 07:27:58;;;;;;;1999.90;999.90;;;21.40;99.90;;;;;;5075365;28;20412;-74
2023/09/07 07:30:27;;;;;;;1999.90;999.90;;;21.60;99.90;;;;;;5067012;28;20909;-73
2023/09/07 07:32:54;;;;;;;1999.90;999.90;;;21.70;99.90;;;;;;5077267;28;20422;-75
2023/09/07 07:35:21;;;;;;;1999.90;999.90;;;22.00;99.90;;;;;;5074845;28;20416;-73
2023/09/07 07:37:47;;;;;;;1999.90;999.90;;;22.00;99.90;;;;;;5074998;28;20419;-74
2023/09/07 07:40:16;;;;;;;1999.90;999.90;;;22.80;99.90;;;;;;5072778;28;20439;-73
2023/09/07 07:42:42;;;;;;;1999.90;999.90;;;22.40;99.90;;;;;;5073040;28;20442;-73
2023/09/07 07:45:10;;;;;;;1999.90;999.90;;;22.40;99.90;;;;;;5077931;28;20481;-72
2023/09/07 07:47:37;;;;;;;1999.90;999.90;;;22.60;99.90;;;;;;5078873;28;20418;-73
2023/09/07 07:50:04;;;;;;;1999.90;999.90;;;22.80;99.90;;;;;;5079506;28;20434;-73
2023/09/07 07:52:31;;;;;;;1999.90;999.90;;;22.80;99.90;;;;;;5075604;28;20939;-73
2023/09/07 07:54:57;;;;;;;1999.90;999.90;;;22.80;99.90;;;;;;5076428;28;20412;-73
2023/09/07 07:57:25;;;;;;;1999.90;999.90;;;22.90;99.90;;;;;;5075875;28;20905;-72
2023/09/07 07:59:52;;;;;;;1999.90;999.90;;;23.00;99.90;;;;;;5076861;28;20404;-72
2023/09/07 08:02:20;;;;;;;1999.90;999.90;;;23.20;99.90;;;;;;5077867;28;20848;-74
2023/09/07 08:04:47;;;;;;;1999.90;999.90;;;23.20;99.90;;;;;;5076682;28;20432;-73
2023/09/07 08:07:13;;;;;;;1999.90;999.90;;;23.30;99.90;;;;;;5075079;28;20536;-72
2023/09/07 08:09:40;;;;;;;1999.90;999.90;;;23.40;99.90;;;;;;5075837;28;20938;-73
2023/09/07 08:12:07;;;;;;;1999.90;999.90;;;23.50;99.90;;;;;;5074751;28;20415;-71
2023/09/07 08:14:36;;;;;;;1999.90;999.90;;;23.70;99.90;;;;;;5074320;28;20431;-72
2023/09/07 08:17:03;;;;;;;1999.90;999.90;;;23.80;99.90;;;;;;5073740;28;20801;-71
2023/09/07 08:19:30;;;;;;;1999.90;999.90;;;24.10;99.90;;;;;;5075002;28;20442;-72
2023/09/07 08:21:56;;;;;;;1999.90;999.90;;;24.40;99.90;;;;;;5073963;28;20419;-71
2023/09/07 08:24:24;;;;;;;1999.90;999.90;;;24.30;99.90;;;;;;5077323;28;20430;-72
2023/09/07 08:26:54;;;;;;;1999.90;999.90;;;24.30;99.90;;;;;;5071145;28;20439;-75
2023/09/07 08:29:21;;;;;;;1999.90;999.90;;;24.60;99.90;;;;;;5077649;28;20934;-75
2023/09/07 08:31:51;;;;;;;1999.90;999.90;;;24.90;99.90;;;;;;5080411;28;20432;-75
2023/09/07 08:34:20;;;;;;;1999.90;999.90;;;25.00;99.90;;;;;;5075614;28;20443;-75
2023/09/07 08:36:47;;;;;;;1999.90;999.90;;;24.90;99.90;;;;;;5075300;28;20493;-72
2023/09/07 08:39:14;;;;;;;1999.90;999.90;;;25.00;99.90;;;;;;5077226;28;20507;-74
2023/09/07 08:41:43;;;;;;;1999.90;999.90;;;24.90;99.90;;;;;;5078350;28;20432;-73
2023/09/07 08:44:11;;;;;;;1999.90;999.90;;;24.90;99.90;;;;;;5071692;28;20432;-72
2023/09/07 08:46:38;;;;;;;1999.90;999.90;;;25.20;99.90;;;;;;5073463;28;20431;-73
2023/09/07 08:49:06;;;;;;;1999.90;999.90;;;25.00;99.90;;;;;;5074440;28;20437;-71
2023/09/07 08:51:34;;;;;;;1999.90;999.90;;;25.00;99.90;;;;;;5070518;28;20423;-71
2023/09/07 08:54:01;;;;;;;1999.90;999.90;;;25.30;99.90;;;;;;5071731;28;20431;-70
2023/09/07 08:56:28;;;;;;;1999.90;999.90;;;25.30;99.90;;;;;;5073499;28;20435;-71
2023/09/07 08:58:55;;;;;;;1999.90;999.90;;;25.30;99.90;;;;;;5076206;28;20434;-74
2023/09/07 09:01:22;;;;;;;1999.90;999.90;;;25.40;99.90;;;;;;5074329;28;20433;-69
2023/09/07 09:03:49;;;;;;;1999.90;999.90;;;25.60;99.90;;;;;;5074291;28;20851;-72
2023/09/07 09:06:19;;;;;;;1999.90;999.90;;;25.60;99.90;;;;;;5073205;28;20422;-73
2023/09/07 09:08:48;;;;;;;1999.90;999.90;;;25.60;99.90;;;;;;5074329;28;20423;-76
2023/09/07 09:11:16;;;;;;;1999.90;999.90;;;26.20;99.90;;;;;;5069099;28;20543;-70
2023/09/07 09:13:43;;;;;;;1999.90;999.90;;;25.80;99.90;;;;;;5073237;28;20425;-70
2023/09/07 09:16:11;;;;;;;1999.90;999.90;;;26.20;99.90;;;;;;5072269;28;20431;-70
2023/09/07 09:18:39;;;;;;;1999.90;999.90;;;25.90;99.90;;;;;;5071341;28;20442;-72
2023/09/07 09:21:07;;;;;;;1999.90;999.90;;;25.90;99.90;;;;;;5076171;28;20424;-71
2023/09/07 09:23:37;;;;;;;1999.90;999.90;;;26.40;99.90;;;;;;5069917;28;20495;-72
2023/09/07 09:26:05;;;;;;;1999.90;999.90;;;26.40;99.90;;;;;;5073642;28;20442;-73
2023/09/07 09:28:32;;;;;;;1999.90;999.90;;;26.40;99.90;;;;;;5069937;28;20440;-70
2023/09/07 09:30:59;;;;;;;1999.90;999.90;;;26.50;99.90;;;;;;5073186;28;20463;-71
2023/09/07 09:33:27;;;;;;;1999.90;999.90;;;26.70;99.90;;;;;;5074630;28;20466;-76
2023/09/07 09:35:56;;;;;;;1999.90;999.90;;;26.90;99.90;;;;;;5078347;28;20427;-73
2023/09/07 09:38:23;;;;;;;1999.90;999.90;;;26.60;99.90;;;;;;5080960;28;20527;-74
2023/09/07 09:40:51;;;;;;;1999.90;999.90;;;26.70;99.90;;;;;;5083888;28;20421;-72
2023/09/07 09:43:20;;;;;;;1999.90;999.90;;;27.30;99.90;;;;;;5077021;28;20431;-71
2023/09/07 09:45:47;;;;;;;1999.90;999.90;;;27.00;99.90;;;;;;5080256;28;20438;-74
2023/09/07 09:48:15;;;;;;;1999.90;999.90;;;26.90;99.90;;;;;;5079835;28;20435;-72
2023/09/07 09:50:42;;;;;;;1999.90;999.90;;;27.10;99.90;;;;;;5080437;28;20442;-72
2023/09/07 09:53:10;;;;;;;1999.90;999.90;;;27.10;99.90;;;;;;5081860;28;20801;-73
2023/09/07 09:55:38;;;;;;;1999.90;999.90;;;27.20;99.90;;;;;;5080994;28;20431;-73
2023/09/07 09:58:06;;;;;;;1999.90;999.90;;;27.10;99.90;;;;;;5080217;28;20804;-72
2023/09/07 10:00:37;;;;;;;1999.90;999.90;;;27.10;99.90;;;;;;5080640;28;20435;-72
2023/09/07 10:03:08;;;;;;;1999.90;999.90;;;27.00;99.90;;;;;;5080571;28;20462;-72
2023/09/07 10:05:35;;;;;;;1999.90;999.90;;;26.90;99.90;;;;;;5080386;28;20438;-72
2023/09/07 10:08:05;;;;;;;1999.90;999.90;;;26.90;99.90;;;;;;5082012;28;20952;-72
2023/09/07 10:10:35;;;;;;;1999.90;999.90;;;27.00;99.90;;;;;;5082430;28;20424;-72
2023/09/07 10:13:03;;;;;;;1999.90;999.90;;;26.90;99.90;;;;;;5082758;28;20469;-73
2023/09/07 10:15:32;;;;;;;1999.90;999.90;;;26.90;99.90;;;;;;5080375;28;21012;-71
2023/09/07 10:18:12;;;;;;;1999.90;999.90;;;27.00;99.90;;;;;;5075367;28;20427;-71
2023/09/07 10:20:53;;;;;;;1999.90;999.90;;;27.20;99.90;;;;;;5078379;28;20451;-73
2023/09/07 10:23:20;;;;;;;1999.90;999.90;;;27.40;99.90;;;;;;5074735;28;21123;-72
2023/09/07 10:25:51;;;;;;;1999.90;999.90;;;27.30;99.80;;;;;;5079210;28;20428;-71
2023/09/07 10:28:22;;;;;;;1999.90;999.90;;;27.60;99.80;;;;;;5079269;28;20480;-72
2023/09/07 10:31:03;;;;;;;1999.90;999.90;;;27.40;99.90;;;;;;5079404;28;20423;-74
2023/09/07 10:33:30;;;;;;;1999.90;999.90;;;27.50;99.80;;;;;;5079690;28;20414;-74
2023/09/07 10:35:57;;;;;;;1999.90;999.90;;;27.60;99.30;;;;;;5079950;28;20475;-72
2023/09/07 10:38:24;;;;;;;1999.90;999.90;;;27.60;98.80;;;;;;5080851;28;20482;-72
2023/09/07 10:40:57;;;;;;;1999.90;999.90;;;27.70;99.40;;;;;;5079042;28;20431;-72
2023/09/07 10:43:24;;;;;;;1999.90;999.90;;;27.70;98.50;;;;;;5070808;28;20461;-72
2023/09/07 10:45:51;;;;;;;1999.90;999.90;;;27.80;98.40;;;;;;5077358;28;20432;-71
2023/09/07 10:48:19;;;;;;;1999.90;999.90;;;27.70;98.50;;;;;;5073261;28;20437;-73
2023/09/07 10:50:46;;;;;;;1999.90;999.90;;;27.60;98.20;;;;;;5072412;28;20439;-71
2023/09/07 10:53:14;;;;;;;1999.90;999.90;;;27.50;98.50;;;;;;5072201;28;20431;-72
2023/09/07 10:55:43;;;;;;;1999.90;999.90;;;27.70;98.80;;;;;;5065290;28;20461;-74
2023/09/07 10:58:10;;;;;;;1999.90;999.90;;;27.70;98.50;;;;;;5076425;28;20410;-71
2023/09/07 11:00:37;;;;;;;1999.90;999.90;;;27.70;98.20;;;;;;5073980;28;20436;-74
2023/09/07 11:03:08;;;;;;;1999.90;999.90;;;28.00;98.20;;;;;;5074385;28;20848;-72
2023/09/07 11:05:38;;;;;;;1999.90;999.90;;;27.50;98.10;;;;;;5071732;28;20431;-72
2023/09/07 11:08:06;;;;;;;1999.90;999.90;;;27.70;98.30;;;;;;5075317;28;20431;-72
2023/09/07 11:10:34;;;;;;;1999.90;999.90;;;28.00;98.40;;;;;;5074822;28;20990;-73
2023/09/07 11:13:03;;;;;;;1999.90;999.90;;;28.10;98.00;;;;;;5075771;28;20526;-75
2023/09/07 11:15:30;;;;;;;1999.90;999.90;;;28.00;96.90;;;;;;5072414;28;20497;-73
2023/09/07 11:17:57;;;;;;;1999.90;999.90;;;28.30;97.60;;;;;;5065784;28;20469;-73
2023/09/07 11:20:24;;;;;;;1999.90;999.90;;;28.10;97.50;;;;;;5063507;28;20449;-73
2023/09/07 11:22:52;;;;;;;1999.90;999.90;;;28.30;97.30;;;;;;5072667;28;20435;-73
2023/09/07 11:25:20;;;;;;;1999.90;999.90;;;28.30;96.70;;;;;;5065927;28;20435;-74
2023/09/07 11:27:47;;;;;;;1999.90;999.90;;;28.40;96.90;;;;;;5070957;28;20434;-75
2023/09/07 11:30:14;;;;;;;1999.90;999.90;;;28.40;96.10;;;;;;5073075;28;20427;-73
2023/09/07 11:32:42;;;;;;;1999.90;999.90;;;28.30;96.20;;;;;;5073956;28;20431;-74
2023/09/07 11:35:10;;;;;;;1999.90;999.90;;;28.50;96.80;;;;;;5074024;28;20423;-72
2023/09/07 11:37:37;;;;;;;1999.90;999.90;;;28.70;96.20;;;;;;5073863;28;20415;-74
2023/09/07 11:40:11;;;;;;;1999.90;999.90;;;28.90;96.10;;;;;;5074572;28;20503;-72
2023/09/07 11:42:38;;;;;;;1999.90;999.90;;;28.60;95.50;;;;;;5073063;28;20431;-73
2023/09/07 11:45:06;;;;;;;1999.90;999.90;;;28.50;95.70;;;;;;5071314;28;20438;-74
2023/09/07 11:47:34;;;;;;;1999.90;999.90;;;28.40;95.80;;;;;;5073327;28;20434;-73
2023/09/07 11:50:01;;;;;;;1999.90;999.90;;;28.50;95.70;;;;;;5072375;28;20435;-73
2023/09/07 11:52:28;;;;;;;1999.90;999.90;;;28.40;95.70;;;;;;5066851;28;20427;-74
2023/09/07 11:54:54;;;;;;;1999.90;999.90;;;28.50;95.90;;;;;;5072456;28;20439;-72
2023/09/07 11:57:22;;;;;;;1999.90;999.90;;;28.70;95.00;;;;;;5091932;22;20436;-74
2023/09/07 11:59:49;;;;;;;1999.90;999.90;;;28.90;95.60;;;;;;5068611;28;20438;-74